Time;durP1;ratioP1;P1;durP2;ratioP2;P2;SDS_P1;SDS_P2;PMS_P1;PMS_P2;Temp;Humidity;BMP_temperature;BMP_pressure;BME280_temperature;BME280_humidity;BME280_pressure;Samples;Min_cycle;Max_cycle;Signal;HPM_P1;HPM_P2
2023/12/19 00:00:19;;;;;;;38.30;21.90;;;;;;;-1.49;100.00;98573.16;5030190;28;20395;-81
2023/12/19 00:02:45;;;;;;;34.50;19.27;;;;;;;-1.52;100.00;98563.09;5038748;28;20490;-81
2023/12/19 00:05:11;;;;;;;29.53;17.33;;;;;;;-1.55;100.00;98574.56;5037905;28;20434;-81
2023/12/19 00:07:38;;;;;;;28.42;16.83;;;;;;;-1.58;100.00;98572.28;5037540;28;20418;-81
2023/12/19 00:10:05;;;;;;;27.92;16.88;;;;;;;-1.60;100.00;98577.59;5037138;28;20395;-81
2023/12/19 00:12:31;;;;;;;31.57;17.77;;;;;;;-1.62;100.00;98574.31;5016556;28;20404;-81
2023/12/19 00:14:58;;;;;;;41.50;24.20;;;;;;;-1.62;100.00;98570.91;5017849;28;20405;-81
2023/12/19 00:17:25;;;;;;;37.35;20.60;;;;;;;-1.60;100.00;98561.22;5019699;28;20409;-82
2023/12/19 00:19:51;;;;;;;30.55;18.25;;;;;;;-1.59;100.00;98568.84;5018584;28;20389;-81
2023/12/19 00:22:17;;;;;;;30.52;16.85;;;;;;;-1.57;100.00;98563.50;5018126;28;20405;-81
2023/12/19 00:24:43;;;;;;;30.15;16.40;;;;;;;-1.60;100.00;98553.41;5019563;28;20408;-81
2023/12/19 00:27:09;;;;;;;22.75;14.40;;;;;;;-1.61;100.00;98534.44;5019489;28;20408;-81
2023/12/19 00:29:35;;;;;;;22.42;13.18;;;;;;;-1.60;100.00;98527.47;5027405;28;20404;-81
2023/12/19 00:32:03;;;;;;;20.67;12.63;;;;;;;-1.59;100.00;98523.91;5029522;28;20404;-81
2023/12/19 00:34:29;;;;;;;20.63;11.57;;;;;;;-1.61;100.00;98503.28;5025605;28;20396;-81
2023/12/19 00:36:55;;;;;;;15.95;10.65;;;;;;;-1.62;100.00;98495.63;5023810;28;20404;-82
2023/12/19 00:39:22;;;;;;;17.05;10.35;;;;;;;-1.64;100.00;98484.56;5024472;28;20412;-81
2023/12/19 00:41:48;;;;;;;16.10;10.70;;;;;;;-1.64;100.00;98480.19;5045030;28;20409;-81
2023/12/19 00:44:14;;;;;;;18.10;11.10;;;;;;;-1.60;100.00;98473.75;5048322;28;20914;-81
2023/12/19 00:46:43;;;;;;;17.55;11.18;;;;;;;-1.51;100.00;98469.47;5046805;28;20414;-81
2023/12/19 00:49:11;;;;;;;18.47;12.10;;;;;;;-1.45;100.00;98466.28;5049275;28;20439;-81
2023/12/19 00:51:37;;;;;;;16.83;11.05;;;;;;;-1.39;100.00;98470.06;5043793;28;20407;-81
2023/12/19 00:54:04;;;;;;;17.48;10.32;;;;;;;-1.39;100.00;98476.06;5043642;28;20419;-81
2023/12/19 00:56:32;;;;;;;17.45;10.15;;;;;;;-1.41;100.00;98488.38;5044010;28;20399;-81
2023/12/19 00:58:59;;;;;;;16.48;10.27;;;;;;;-1.43;100.00;98492.09;5043683;28;20859;-81
2023/12/19 01:01:25;;;;;;;19.30;11.07;;;;;;;-1.34;100.00;98486.00;5038836;28;20470;-81
2023/12/19 01:03:52;;;;;;;18.92;11.13;;;;;;;-1.22;100.00;98483.03;5024751;28;20475;-82
2023/12/19 01:06:19;;;;;;;16.05;10.70;;;;;;;-1.15;100.00;98467.66;5024947;28;20773;-81
2023/12/19 01:08:45;;;;;;;18.48;11.07;;;;;;;-1.09;100.00;98468.84;5025127;28;20415;-81
2023/12/19 01:11:11;;;;;;;17.70;10.90;;;;;;;-1.04;100.00;98466.59;5024295;28;20491;-81
2023/12/19 01:13:37;;;;;;;15.38;9.80;;;;;;;-1.02;100.00;98464.66;5024453;28;20419;-81
2023/12/19 01:16:05;;;;;;;12.13;8.60;;;;;;;-1.03;100.00;98478.63;5024151;28;20455;-82
2023/12/19 01:18:31;;;;;;;13.43;8.23;;;;;;;-1.09;100.00;98468.84;5025143;28;20420;-82
2023/12/19 01:20:57;;;;;;;14.57;8.77;;;;;;;-1.15;100.00;98464.25;5025039;28;20471;-81
2023/12/19 01:23:25;;;;;;;13.43;8.40;;;;;;;-1.20;100.00;98455.09;5024450;28;20550;-81
2023/12/19 01:25:51;;;;;;;12.73;7.90;;;;;;;-1.22;100.00;98469.22;5024277;28;20397;-81
2023/12/19 01:28:18;;;;;;;12.80;7.73;;;;;;;-1.26;100.00;98473.06;5025228;28;20563;-81
2023/12/19 01:30:44;;;;;;;13.80;8.68;;;;;;;-1.29;100.00;98460.41;5024776;28;20435;-81
2023/12/19 01:33:10;;;;;;;13.52;8.40;;;;;;;-1.33;100.00;98469.44;5024309;28;20401;-81
2023/12/19 01:35:37;;;;;;;11.45;7.97;;;;;;;-1.35;100.00;98479.97;5025282;28;20400;-81
2023/12/19 01:38:03;;;;;;;13.23;8.40;;;;;;;-1.35;100.00;98481.75;5030218;28;20422;-81
2023/12/19 01:40:31;;;;;;;12.57;8.18;;;;;;;-1.40;100.00;98484.00;5040483;28;20398;-81
2023/12/19 01:42:58;;;;;;;13.82;8.63;;;;;;;-1.44;100.00;98500.84;5002281;28;20394;-81
2023/12/19 01:45:27;;;;;;;11.25;7.68;;;;;;;-1.49;100.00;98508.25;5001791;28;21195;-81
2023/12/19 01:47:53;;;;;;;11.70;7.85;;;;;;;-1.54;100.00;98526.88;5002167;28;20477;-82
2023/12/19 01:50:20;;;;;;;12.80;8.30;;;;;;;-1.59;100.00;98532.50;5000949;28;20407;-82
2023/12/19 01:52:48;;;;;;;20.67;11.98;;;;;;;-1.61;100.00;98529.25;4996748;28;20414;-82
2023/12/19 01:55:15;;;;;;;32.22;18.13;;;;;;;-1.59;100.00;98505.72;5031148;28;20403;-82
2023/12/19 01:57:44;;;;;;;27.55;15.73;;;;;;;-1.57;100.00;98494.22;5036953;28;20457;-82
2023/12/19 02:00:14;;;;;;;23.95;13.68;;;;;;;-1.51;100.00;98497.22;5032138;28;20420;-82
2023/12/19 02:02:40;;;;;;;23.58;13.57;;;;;;;-1.51;100.00;98486.81;5037579;28;20406;-83
2023/12/19 02:05:10;;;;;;;22.40;11.93;;;;;;;-1.52;100.00;98487.78;5040862;28;20399;-83
2023/12/19 02:07:36;;;;;;;13.90;9.85;;;;;;;-1.58;100.00;98502.19;5044224;28;20511;-81
2023/12/19 02:10:03;;;;;;;13.90;9.30;;;;;;;-1.64;100.00;98513.94;5034825;28;20399;-82
2023/12/19 02:12:29;;;;;;;19.77;12.05;;;;;;;-1.70;100.00;98517.13;5035021;28;20482;-82
2023/12/19 02:14:57;;;;;;;30.77;16.40;;;;;;;-1.69;100.00;98518.78;5034995;28;20590;-82
2023/12/19 02:17:24;;;;;;;26.15;15.50;;;;;;;-1.70;100.00;98521.50;5029636;28;20409;-81
2023/12/19 02:19:54;;;;;;;22.05;13.32;;;;;;;-1.73;100.00;98527.00;5014671;28;20534;-81
2023/12/19 02:22:20;;;;;;;19.90;12.87;;;;;;;-1.76;100.00;98519.50;5036724;28;20428;-81
2023/12/19 02:24:48;;;;;;;18.80;12.32;;;;;;;-1.76;100.00;98519.50;5034663;28;20418;-82
2023/12/19 02:27:17;;;;;;;24.67;13.70;;;;;;;-1.74;100.00;98509.78;5034777;28;20862;-81
2023/12/19 02:29:43;;;;;;;19.55;13.10;;;;;;;-1.74;100.00;98491.63;5035464;28;20405;-81
2023/12/19 02:32:09;;;;;;;18.38;11.70;;;;;;;-1.72;100.00;98500.88;5015903;28;20404;-81
2023/12/19 02:34:36;;;;;;;16.17;10.38;;;;;;;-1.71;100.00;98489.53;5015791;28;20405;-81
2023/12/19 02:37:02;;;;;;;14.25;9.65;;;;;;;-1.68;100.00;98489.25;5015760;28;20496;-82
2023/12/19 02:39:29;;;;;;;19.48;11.93;;;;;;;-1.69;100.00;98486.81;5016862;28;20818;-82
2023/12/19 02:41:56;;;;;;;18.67;11.97;;;;;;;-1.70;100.00;98479.97;5031251;28;20490;-82
2023/12/19 02:44:22;;;;;;;17.50;11.70;;;;;;;-1.72;100.00;98472.31;5040099;28;20434;-82
2023/12/19 02:46:49;;;;;;;18.10;11.05;;;;;;;-1.75;100.00;98457.06;5045304;28;20403;-82
2023/12/19 02:49:16;;;;;;;15.80;9.95;;;;;;;-1.78;100.00;98446.97;5049327;28;20395;-82
2023/12/19 02:51:42;;;;;;;15.35;9.70;;;;;;;-1.80;100.00;98435.09;5039613;28;20413;-81
2023/12/19 02:54:08;;;;;;;13.27;8.90;;;;;;;-1.83;100.00;98444.00;5019234;28;20416;-81
2023/12/19 02:56:34;;;;;;;12.27;8.05;;;;;;;-1.86;100.00;98459.84;5014620;28;20483;-81
2023/12/19 02:59:02;;;;;;;13.57;9.10;;;;;;;-1.92;100.00;98463.03;5014498;28;20503;-81
2023/12/19 03:01:28;;;;;;;19.95;12.35;;;;;;;-1.92;100.00;98457.03;5023393;28;20399;-81
2023/12/19 03:03:54;;;;;;;17.65;10.80;;;;;;;-1.94;100.00;98462.38;5034623;28;20438;-81
2023/12/19 03:06:20;;;;;;;14.75;9.63;;;;;;;-1.97;100.00;98467.88;5034063;28;20895;-81
2023/12/19 03:08:47;;;;;;;15.90;10.60;;;;;;;-2.04;100.00;98467.63;5034417;28;20441;-81
2023/12/19 03:11:14;;;;;;;16.08;11.18;;;;;;;-2.03;100.00;98460.66;5022774;28;20420;-82
2023/12/19 03:13:41;;;;;;;14.32;9.50;;;;;;;-2.04;100.00;98459.03;5013402;28;20459;-81
2023/12/19 03:16:08;;;;;;;14.00;9.32;;;;;;;-2.05;100.00;98463.41;5014764;28;20396;-81
2023/12/19 03:18:34;;;;;;;11.02;8.75;;;;;;;-2.04;100.00;98464.22;5014014;28;20816;-81
2023/12/19 03:21:00;;;;;;;10.95;7.45;;;;;;;-2.05;100.00;98472.97;5014680;28;20893;-81
2023/12/19 03:23:28;;;;;;;13.63;8.80;;;;;;;-2.08;100.00;98470.63;5013675;28;20809;-81
2023/12/19 03:25:54;;;;;;;24.67;14.57;;;;;;;-2.06;100.00;98463.53;5014238;28;20750;-81
2023/12/19 03:28:20;;;;;;;20.08;12.77;;;;;;;-2.05;100.00;98447.00;5013858;28;20881;-81
2023/12/19 03:30:46;;;;;;;17.30;11.65;;;;;;;-2.03;100.00;98445.88;5022212;28;20490;-80
2023/12/19 03:33:14;;;;;;;14.02;9.90;;;;;;;-2.03;100.00;98447.69;5033735;28;20438;-80
2023/12/19 03:35:40;;;;;;;12.53;9.37;;;;;;;-2.06;100.00;98453.97;5019936;28;20397;-80
2023/12/19 03:38:06;;;;;;;14.05;9.50;;;;;;;-2.11;100.00;98447.59;5021646;28;20770;-81
2023/12/19 03:40:33;;;;;;;15.80;10.52;;;;;;;-2.14;100.00;98440.09;5022276;28;20464;-80
2023/12/19 03:42:59;;;;;;;13.70;10.10;;;;;;;-2.14;100.00;98437.50;5023565;28;20450;-81
2023/12/19 03:45:25;;;;;;;14.75;9.88;;;;;;;-2.13;100.00;98419.22;5023612;28;20440;-80
2023/12/19 03:47:51;;;;;;;14.95;10.10;;;;;;;-2.10;100.00;98418.09;5016767;28;20401;-81
2023/12/19 03:50:19;;;;;;;14.52;9.98;;;;;;;-2.10;100.00;98421.50;5014715;28;20881;-81
2023/12/19 03:52:45;;;;;;;12.57;9.05;;;;;;;-2.11;100.00;98430.25;5033211;28;20460;-81
2023/12/19 03:55:11;;;;;;;13.55;9.32;;;;;;;-2.14;100.00;98433.13;5032673;28;20403;-80
2023/12/19 03:57:37;;;;;;;11.50;8.48;;;;;;;-2.14;100.00;98433.13;5033218;28;20482;-80
2023/12/19 04:00:06;;;;;;;12.18;8.65;;;;;;;-2.15;100.00;98436.69;5032538;28;20478;-81
2023/12/19 04:02:32;;;;;;;12.18;9.45;;;;;;;-2.17;100.00;98430.00;5018306;28;20420;-80
2023/12/19 04:04:59;;;;;;;15.13;10.02;;;;;;;-2.19;100.00;98422.38;5014314;28;20397;-80
2023/12/19 04:07:26;;;;;;;16.40;11.70;;;;;;;-2.17;100.00;98415.25;5013644;28;20459;-80
2023/12/19 04:09:52;;;;;;;16.35;11.02;;;;;;;-2.17;100.00;98404.06;5012659;28;20412;-80
2023/12/19 04:12:18;;;;;;;13.25;9.65;;;;;;;-2.16;100.00;98410.88;5012561;28;20405;-80
2023/12/19 04:14:44;;;;;;;12.60;9.50;;;;;;;-2.17;100.00;98404.88;5012467;28;20403;-81
2023/12/19 04:17:11;;;;;;;14.38;10.32;;;;;;;-2.19;100.00;98398.22;5015130;28;20402;-80
2023/12/19 04:19:39;;;;;;;14.13;9.50;;;;;;;-2.19;100.00;98401.66;5031989;28;20415;-80
2023/12/19 04:22:05;;;;;;;11.40;8.55;;;;;;;-2.19;100.00;98393.03;5020141;28;20886;-81
2023/12/19 04:24:32;;;;;;;11.68;8.52;;;;;;;-2.20;100.00;98392.22;5013345;28;20882;-81
2023/12/19 04:26:59;;;;;;;9.90;7.75;;;;;;;-2.19;100.00;98385.25;5016030;28;20489;-81
2023/12/19 04:29:25;;;;;;;11.17;7.63;;;;;;;-2.21;100.00;98380.22;5022814;28;20476;-81
2023/12/19 04:31:51;;;;;;;9.02;6.75;;;;;;;-2.22;100.00;98383.78;5026586;28;20399;-80
2023/12/19 04:34:17;;;;;;;9.02;6.85;;;;;;;-2.22;100.00;98372.56;5031870;28;20700;-80
2023/12/19 04:36:43;;;;;;;7.33;6.53;;;;;;;-2.24;100.00;98383.09;5032358;28;20464;-80
2023/12/19 04:39:09;;;;;;;7.93;6.45;;;;;;;-2.25;100.00;98376.28;5032147;28;20454;-81
2023/12/19 04:41:37;;;;;;;8.98;6.80;;;;;;;-2.27;100.00;98377.41;5028069;28;20404;-81
2023/12/19 04:44:05;;;;;;;8.85;6.45;;;;;;;-2.26;100.00;98377.25;5014697;28;20414;-81
2023/12/19 04:46:31;;;;;;;8.50;6.43;;;;;;;-2.27;100.00;98382.59;5011929;28;20496;-81
2023/12/19 04:48:57;;;;;;;9.43;6.70;;;;;;;-2.27;100.00;98382.59;5012169;28;20437;-81
2023/12/19 04:51:23;;;;;;;7.00;6.30;;;;;;;-2.28;100.00;98386.13;5018453;28;20957;-80
2023/12/19 04:53:50;;;;;;;7.28;5.70;;;;;;;-2.30;100.00;98386.28;5012633;28;20802;-80
2023/12/19 04:56:19;;;;;;;6.43;5.45;;;;;;;-2.31;100.00;98381.22;5012426;28;20429;-81
2023/12/19 04:58:46;;;;;;;6.78;5.60;;;;;;;-2.33;100.00;98387.38;5012028;28;20424;-81
2023/12/19 05:01:12;;;;;;;7.20;5.90;;;;;;;-2.34;100.00;98374.56;5023893;28;20879;-81
2023/12/19 05:03:41;;;;;;;7.47;5.72;;;;;;;-2.38;100.00;98366.25;5031503;28;20473;-81
2023/12/19 05:06:08;;;;;;;6.80;5.72;;;;;;;-2.37;100.00;98362.72;5016870;28;20951;-81
2023/12/19 05:08:34;;;;;;;7.30;5.90;;;;;;;-2.36;100.00;98360.94;5012366;28;20444;-81
2023/12/19 05:11:00;;;;;;;6.90;5.72;;;;;;;-2.36;100.00;98351.38;5017212;28;20769;-81
2023/12/19 05:13:26;;;;;;;7.43;5.70;;;;;;;-2.37;100.00;98341.97;5011242;28;20404;-80
2023/12/19 05:15:54;;;;;;;7.45;5.43;;;;;;;-2.39;100.00;98343.06;5022341;28;20420;-81
2023/12/19 05:18:20;;;;;;;6.28;4.88;;;;;;;-2.42;100.00;98356.34;5028360;28;20414;-81
2023/12/19 05:20:47;;;;;;;7.03;4.93;;;;;;;-2.48;100.00;98357.72;5034839;28;20807;-81
2023/12/19 05:23:13;;;;;;;7.63;5.45;;;;;;;-2.50;100.00;98346.69;5035176;28;20915;-81
2023/12/19 05:25:40;;;;;;;6.38;5.10;;;;;;;-2.51;100.00;98334.69;5033672;28;20407;-80
2023/12/19 05:28:06;;;;;;;6.20;5.22;;;;;;;-2.49;100.00;98329.38;5016177;28;20415;-80
2023/12/19 05:30:33;;;;;;;6.18;5.10;;;;;;;-2.51;100.00;98342.47;5015863;28;20389;-85
2023/12/19 05:33:00;;;;;;;6.80;5.10;;;;;;;-2.53;100.00;98338.38;5018243;28;20401;-84
2023/12/19 05:35:26;;;;;;;5.55;4.80;;;;;;;-2.56;100.00;98351.66;5017779;28;20573;-82
2023/12/19 05:37:52;;;;;;;5.50;4.40;;;;;;;-2.60;100.00;98348.50;5017239;28;20486;-84
2023/12/19 05:40:19;;;;;;;5.35;4.25;;;;;;;-2.60;100.00;98342.50;5016317;28;20405;-84
2023/12/19 05:42:45;;;;;;;7.30;4.70;;;;;;;-2.60;100.00;98338.13;5016437;28;20419;-84
2023/12/19 05:45:11;;;;;;;5.95;4.90;;;;;;;-2.60;100.00;98327.78;5015414;28;20397;-84
2023/12/19 05:47:37;;;;;;;5.70;4.60;;;;;;;-2.59;100.00;98333.78;5015475;28;20499;-82
2023/12/19 05:50:06;;;;;;;6.00;4.38;;;;;;;-2.61;100.00;98333.09;5015249;28;20662;-86
2023/12/19 05:52:32;;;;;;;4.95;4.40;;;;;;;-2.63;100.00;98340.22;5020501;28;20408;-82
2023/12/19 05:54:58;;;;;;;4.65;4.18;;;;;;;-2.67;100.00;98341.47;5014399;28;20475;-82
2023/12/19 05:57:24;;;;;;;8.65;6.47;;;;;;;-2.69;100.00;98331.22;5019432;28;20507;-82
2023/12/19 05:59:50;;;;;;;8.18;5.90;;;;;;;-2.69;100.00;98323.44;5022763;28;20545;-83
2023/12/19 06:02:19;;;;;;;7.70;5.70;;;;;;;-2.68;100.00;98312.13;5027753;28;20408;-82
2023/12/19 06:04:45;;;;;;;6.40;5.25;;;;;;;-2.68;100.00;98308.72;5015900;28;20409;-83
2023/12/19 06:07:12;;;;;;;6.13;4.67;;;;;;;-2.70;100.00;98308.03;5015437;28;20469;-83
2023/12/19 06:09:38;;;;;;;5.75;4.60;;;;;;;-2.74;100.00;98303.16;5034046;28;20410;-83
2023/12/19 06:12:06;;;;;;;5.15;4.10;;;;;;;-2.76;100.00;98307.69;5037163;28;20880;-84
2023/12/19 06:14:33;;;;;;;4.97;4.47;;;;;;;-2.81;100.00;98309.91;5037611;28;20453;-83
2023/12/19 06:16:59;;;;;;;4.88;4.07;;;;;;;-2.81;100.00;98329.81;5043700;28;20402;-85
2023/12/19 06:19:25;;;;;;;4.80;4.30;;;;;;;-2.82;100.00;98333.34;5046179;28;20419;-85
2023/12/19 06:21:51;;;;;;;5.57;4.30;;;;;;;-2.86;100.00;98347.56;5046705;28;20403;-85
2023/12/19 06:24:19;;;;;;;4.72;4.10;;;;;;;-2.86;100.00;98355.31;5053439;28;20407;-85
2023/12/19 06:26:46;;;;;;;5.43;4.60;;;;;;;-2.87;100.00;98371.81;5057390;28;20617;-85
2023/12/19 06:29:12;;;;;;;4.93;4.20;;;;;;;-2.88;100.00;98368.41;5057761;28;20465;-85
2023/12/19 06:31:43;;;;;;;5.22;4.70;;;;;;;-2.88;100.00;98376.19;5026970;28;20765;-84
2023/12/19 06:34:09;;;;;;;5.30;4.50;;;;;;;-2.88;100.00;98380.56;5017337;28;20496;-84
2023/12/19 06:36:37;;;;;;;5.53;4.50;;;;;;;-2.88;100.00;98383.97;5015179;28;20405;-84
2023/12/19 06:39:04;;;;;;;6.17;4.90;;;;;;;-2.88;100.00;98386.56;5016936;28;20424;-85
2023/12/19 06:41:31;;;;;;;6.25;5.05;;;;;;;-2.89;100.00;98374.56;5016400;28;20455;-85
2023/12/19 06:43:57;;;;;;;5.60;4.90;;;;;;;-2.88;100.00;98383.16;5029150;28;20401;-85
2023/12/19 06:46:23;;;;;;;6.80;5.03;;;;;;;-2.88;100.00;98388.31;5015527;28;20483;-85
2023/12/19 06:48:49;;;;;;;6.80;5.50;;;;;;;-2.88;100.00;98396.91;5014397;28;20447;-84
2023/12/19 06:51:23;;;;;;;8.38;6.38;;;;;;;-2.87;100.00;98398.56;5022299;28;20406;-85
2023/12/19 06:53:51;;;;;;;9.65;6.63;;;;;;;-2.86;100.00;98394.19;5042186;28;20434;-83
2023/12/19 06:56:17;;;;;;;8.98;7.03;;;;;;;-2.85;100.00;98388.84;5029062;28;20400;-84
2023/12/19 06:58:45;;;;;;;11.93;7.93;;;;;;;-2.83;100.00;98375.75;5014051;28;20416;-85
2023/12/19 07:01:11;;;;;;;13.90;9.57;;;;;;;-2.80;100.00;98373.69;5018207;28;20395;-84
2023/12/19 07:03:40;;;;;;;18.17;11.60;;;;;;;-2.77;100.00;98364.81;5023201;28;20443;-82
2023/12/19 07:06:06;;;;;;;17.65;11.60;;;;;;;-2.74;100.00;98357.59;5015681;28;20467;-84
2023/12/19 07:08:32;;;;;;;18.83;11.50;;;;;;;-2.72;100.00;98346.25;5014943;28;20409;-85
2023/12/19 07:10:58;;;;;;;16.88;10.70;;;;;;;-2.69;100.00;98345.97;5023679;28;20447;-84
2023/12/19 07:13:24;;;;;;;19.27;12.60;;;;;;;-2.69;100.00;98336.41;5014282;28;20466;-84
2023/12/19 07:15:51;;;;;;;25.02;14.02;;;;;;;-2.67;100.00;98334.50;5014059;28;20463;-85
2023/12/19 07:18:18;;;;;;;21.50;13.73;;;;;;;-2.63;100.00;98340.22;5019491;28;20859;-84
2023/12/19 07:20:44;;;;;;;22.63;13.90;;;;;;;-2.64;100.00;98341.19;5025719;28;20495;-84
2023/12/19 07:23:11;;;;;;;20.98;13.32;;;;;;;-2.66;100.00;98343.91;5033519;28;20402;-87
2023/12/19 07:25:37;;;;;;;19.03;12.80;;;;;;;-2.69;100.00;98343.38;5036523;28;20452;-86
2023/12/19 07:28:03;;;;;;;16.65;11.32;;;;;;;-2.70;100.00;98360.69;5034239;28;20395;-84
2023/12/19 07:30:29;;;;;;;15.68;10.95;;;;;;;-2.70;100.00;98370.22;5025088;28;20393;-84
2023/12/19 07:32:59;;;;;;;36.65;21.08;;;;;;;-2.67;100.00;98368.19;5027853;28;20786;-84
2023/12/19 07:35:25;;;;;;;43.72;24.05;;;;;;;-2.63;100.00;98355.78;5014543;28;20912;-84
2023/12/19 07:37:51;;;;;;;37.65;22.65;;;;;;;-2.58;100.00;98354.38;5012453;28;20461;-85
2023/12/19 07:40:17;;;;;;;33.53;20.85;;;;;;;-2.55;100.00;98359.25;5018238;28;20391;-85
2023/12/19 07:42:44;;;;;;;29.40;18.63;;;;;;;-2.54;100.00;98373.84;5022731;28;20469;-85
2023/12/19 07:45:11;;;;;;;28.27;17.30;;;;;;;-2.52;100.00;98373.69;5025286;28;20399;-85
2023/12/19 07:47:37;;;;;;;23.27;15.18;;;;;;;-2.52;100.00;98374.53;5021888;28;20399;-84
2023/12/19 07:50:07;;;;;;;24.83;14.70;;;;;;;-2.51;100.00;98377.94;5023451;28;20512;-85
2023/12/19 07:52:33;;;;;;;29.08;17.02;;;;;;;-2.50;100.00;98375.19;5019421;28;20457;-85
2023/12/19 07:54:59;;;;;;;27.08;16.70;;;;;;;-2.47;100.00;98374.06;5016498;28;20405;-84
2023/12/19 07:57:25;;;;;;;22.25;14.50;;;;;;;-2.45;100.00;98387.72;5019612;28;20412;-85
2023/12/19 07:59:52;;;;;;;33.47;20.20;;;;;;;-2.44;100.00;98371.22;5027489;28;20775;-85
2023/12/19 08:02:18;;;;;;;44.30;25.50;;;;;;;-2.41;100.00;98363.16;5022244;28;20492;-85
2023/12/19 08:04:44;;;;;;;37.80;23.35;;;;;;;-2.37;100.00;98369.66;5027005;28;20410;-85
2023/12/19 08:07:11;;;;;;;31.92;19.67;;;;;;;-2.33;100.00;98380.56;5021953;28;20406;-85
2023/12/19 08:09:38;;;;;;;32.05;18.73;;;;;;;-2.30;100.00;98388.88;5017889;28;20950;-85
2023/12/19 08:12:04;;;;;;;47.92;26.50;;;;;;;-2.29;100.00;98367.16;5016490;28;20407;-85
2023/12/19 08:14:31;;;;;;;41.15;24.20;;;;;;;-2.26;100.00;98363.47;5015456;28;20402;-85
2023/12/19 08:16:57;;;;;;;38.75;22.23;;;;;;;-2.25;100.00;98365.91;5023885;28;20423;-84
2023/12/19 08:19:23;;;;;;;34.28;20.80;;;;;;;-2.22;100.00;98373.41;5019952;28;20906;-84
2023/12/19 08:21:50;;;;;;;36.72;21.73;;;;;;;-2.21;100.00;98363.84;5022406;28;20429;-84
2023/12/19 08:24:18;;;;;;;35.50;20.90;;;;;;;-2.20;100.00;98371.47;5018017;28;20401;-84
2023/12/19 08:26:46;;;;;;;29.95;18.92;;;;;;;-2.20;100.00;98360.28;5020594;28;20739;-84
2023/12/19 08:29:12;;;;;;;28.37;18.90;;;;;;;-2.20;100.00;98368.06;5017865;28;20484;-84
2023/12/19 08:31:38;;;;;;;46.72;25.80;;;;;;;-2.21;100.00;98359.47;5024910;28;20407;-84
2023/12/19 08:34:05;;;;;;;51.13;27.67;;;;;;;-2.20;100.00;98345.53;5020812;28;20404;-83
2023/12/19 08:36:31;;;;;;;42.58;24.17;;;;;;;-2.17;100.00;98340.06;5019126;28;20482;-84
2023/12/19 08:38:57;;;;;;;32.70;20.70;;;;;;;-2.13;100.00;98351.78;5017369;28;20507;-84
2023/12/19 08:41:25;;;;;;;31.15;19.63;;;;;;;-2.11;100.00;98336.88;5018592;28;20404;-84
2023/12/19 08:43:51;;;;;;;31.95;19.67;;;;;;;-2.08;100.00;98335.75;5023650;28;20432;-84
2023/12/19 08:46:17;;;;;;;27.77;18.33;;;;;;;-2.06;100.00;98329.47;5020692;28;20396;-80
2023/12/19 08:48:43;;;;;;;30.23;18.92;;;;;;;-2.03;100.00;98336.94;5019558;28;20415;-81
2023/12/19 08:51:10;;;;;;;30.77;18.70;;;;;;;-1.99;100.00;98332.28;5020347;28;20397;-84
2023/12/19 08:53:36;;;;;;;33.67;20.80;;;;;;;-1.97;100.00;98333.78;5018771;28;20401;-84
2023/12/19 08:56:02;;;;;;;38.40;23.13;;;;;;;-1.94;100.00;98330.03;5023212;28;20412;-84
2023/12/19 08:58:30;;;;;;;34.80;20.80;;;;;;;-1.88;100.00;98341.63;5024289;28;20470;-84
2023/12/19 09:00:57;;;;;;;36.22;21.45;;;;;;;-1.84;100.00;98335.16;5026459;28;20459;-84
2023/12/19 09:03:23;;;;;;;35.17;21.13;;;;;;;-1.81;100.00;98337.47;5026258;28;20831;-85
2023/12/19 09:05:52;;;;;;;29.33;18.08;;;;;;;-1.77;100.00;98334.41;5017473;28;20448;-85
2023/12/19 09:08:18;;;;;;;34.53;20.95;;;;;;;-1.71;100.00;98315.66;5028205;28;20403;-84
2023/12/19 09:10:46;;;;;;;32.20;20.35;;;;;;;-1.63;100.00;98320.91;5037054;28;20391;-84
2023/12/19 09:13:12;;;;;;;30.63;19.67;;;;;;;-1.53;100.00;98323.41;5039340;28;20441;-84
2023/12/19 09:15:39;;;;;;;30.27;18.77;;;;;;;-1.41;100.00;98322.19;5026513;28;20478;-85
2023/12/19 09:18:06;;;;;;;28.63;18.00;;;;;;;-1.30;100.00;98315.94;5043596;28;20477;-87
2023/12/19 09:20:32;;;;;;;32.50;20.42;;;;;;;-1.19;100.00;98310.47;5036875;28;20391;-85
2023/12/19 09:22:58;;;;;;;34.80;20.33;;;;;;;-1.10;100.00;98300.94;5014485;28;20406;-85
2023/12/19 09:25:25;;;;;;;46.05;25.73;;;;;;;-1.00;100.00;98310.25;5013608;28;20403;-85
2023/12/19 09:27:51;;;;;;;53.17;25.25;;;;;;;-0.90;100.00;98305.72;5004512;28;20484;-84
2023/12/19 09:30:17;;;;;;;42.90;22.65;;;;;;;-0.80;100.00;98301.22;5037213;28;20407;-87
2023/12/19 09:32:44;;;;;;;47.75;23.70;;;;;;;-0.67;100.00;98294.75;5040259;28;20419;-87
2023/12/19 09:35:11;;;;;;;56.10;30.27;;;;;;;-0.56;100.00;98289.28;5039898;28;20407;-86
2023/12/19 09:37:38;;;;;;;54.60;28.35;;;;;;;-0.43;100.00;98284.44;5056194;28;20405;-86
2023/12/19 09:40:10;;;;;;;48.75;24.67;;;;;;;-0.29;100.00;98270.00;5049680;28;20403;-84
2023/12/19 09:42:36;;;;;;;40.03;22.98;;;;;;;-0.15;100.00;98262.34;5028673;28;20946;-83
2023/12/19 09:45:03;;;;;;;37.80;20.80;;;;;;;-0.03;100.00;98258.47;5016442;28;20874;-84
2023/12/19 09:47:32;;;;;;;31.30;18.38;;;;;;;0.10;100.00;98268.41;5025406;28;20393;-84
2023/12/19 09:50:01;;;;;;;27.45;16.55;;;;;;;0.23;100.00;98281.72;5017873;28;20474;-84
2023/12/19 09:52:28;;;;;;;21.35;13.90;;;;;;;0.36;100.00;98292.47;5038345;28;20395;-86
2023/12/19 09:54:54;;;;;;;17.65;11.93;;;;;;;0.47;100.00;98282.69;5031495;28;20405;-86
2023/12/19 09:57:21;;;;;;;15.63;11.10;;;;;;;0.57;100.00;98288.53;5034955;28;20398;-86
2023/12/19 09:59:48;;;;;;;15.32;11.20;;;;;;;0.66;100.00;98285.75;5046793;28;20418;-85
2023/12/19 10:02:14;;;;;;;15.98;10.50;;;;;;;0.69;100.00;98287.19;5058023;28;20486;-84
2023/12/19 10:04:41;;;;;;;13.37;9.57;;;;;;;0.73;100.00;98296.31;5059413;28;20409;-84
2023/12/19 10:07:08;;;;;;;15.32;10.90;;;;;;;0.74;100.00;98290.97;5055055;28;20466;-84
2023/12/19 10:09:49;;;;;;;14.52;10.57;;;;;;;0.74;100.00;98285.75;5040028;28;20754;-84
2023/12/19 10:12:16;;;;;;;14.05;11.13;;;;;;;0.73;100.00;98272.88;5036194;28;20415;-83
2023/12/19 10:14:46;;;;;;;11.83;9.50;;;;;;;0.69;100.00;98256.75;5035996;28;20409;-83
2023/12/19 10:17:22;;;;;;;15.20;9.75;;;;;;;0.69;100.00;98251.53;5028832;28;20413;-83
2023/12/19 10:19:48;;;;;;;13.38;9.38;;;;;;;0.69;100.00;98243.72;5015110;28;20427;-83
2023/12/19 10:22:20;;;;;;;13.07;9.88;;;;;;;0.70;100.00;98247.13;5015495;28;20396;-83
2023/12/19 10:24:46;;;;;;;12.30;8.95;;;;;;;0.67;100.00;98247.50;5015932;28;20463;-83
2023/12/19 10:27:12;;;;;;;13.77;9.60;;;;;;;0.64;100.00;98245.22;5016348;28;20413;-83
2023/12/19 10:29:40;;;;;;;14.53;9.53;;;;;;;0.62;100.00;98255.78;5015438;28;20830;-83
2023/12/19 10:32:14;;;;;;;12.30;9.27;;;;;;;0.59;100.00;98261.34;5016809;28;20408;-83
2023/12/19 10:34:41;;;;;;;13.75;10.25;;;;;;;0.53;100.00;98253.38;5015623;28;20433;-83
2023/12/19 10:37:12;;;;;;;17.23;10.63;;;;;;;0.50;100.00;98254.53;5015968;28;20714;-83
2023/12/19 10:39:42;;;;;;;16.02;10.23;;;;;;;0.52;100.00;98244.75;5017834;28;20462;-83
2023/12/19 10:42:11;;;;;;;13.07;9.30;;;;;;;0.52;100.00;98239.56;5014454;28;20442;-84
2023/12/19 10:44:39;;;;;;;13.82;9.85;;;;;;;0.56;100.00;98229.59;5015971;28;20754;-85
2023/12/19 10:47:06;;;;;;;19.88;11.38;;;;;;;0.55;100.00;98220.16;5018101;28;20469;-84
2023/12/19 10:49:33;;;;;;;13.43;9.90;;;;;;;0.53;100.00;98209.09;5035223;28;20422;-83
2023/12/19 10:52:06;;;;;;;13.98;9.98;;;;;;;0.50;100.00;98215.47;5035703;28;20434;-85
2023/12/19 10:54:37;;;;;;;14.45;9.90;;;;;;;0.47;100.00;98207.97;5033404;28;20473;-84
2023/12/19 10:57:15;;;;;;;13.13;9.40;;;;;;;0.46;100.00;98200.31;5033400;28;20875;-84
2023/12/19 10:59:48;;;;;;;13.30;9.13;;;;;;;0.47;100.00;98201.94;5023792;28;20482;-84
2023/12/19 11:02:33;;;;;;;14.50;9.80;;;;;;;0.50;100.00;98204.22;5032597;28;20452;-84
2023/12/19 11:05:09;;;;;;;13.25;8.93;;;;;;;0.64;100.00;98212.16;5036095;28;20444;-84
2023/12/19 11:07:37;;;;;;;12.30;9.52;;;;;;;0.97;100.00;98206.81;5035017;28;20543;-85
2023/12/19 11:10:06;;;;;;;11.10;8.40;;;;;;;1.39;100.00;98204.63;5014128;28;20405;-85
2023/12/19 11:12:35;;;;;;;9.13;7.95;;;;;;;1.63;100.00;98195.84;5013900;28;20446;-84
2023/12/19 11:15:03;;;;;;;8.60;7.60;;;;;;;1.79;100.00;98195.72;5021098;28;20483;-84